sensor_id;sensor_type;location;lat;lon;timestamp;pressure;altitude;pressure_sealevel;temperature;humidity
61757;BME280;57225;61.460;24.060;2023-05-23T00:02:05;100227.38;;;10.96;100.00
61757;BME280;57225;61.460;24.060;2023-05-23T00:04:52;100221.84;;;10.85;100.00
61757;BME280;57225;61.460;24.060;2023-05-23T00:07:41;100217.06;;;10.82;100.00
61757;BME280;57225;61.460;24.060;2023-05-23T00:10:26;100213.06;;;10.87;100.00
61757;BME280;57225;61.460;24.060;2023-05-23T00:13:11;100214.59;;;11.06;100.00
61757;BME280;57225;61.460;24.060;2023-05-23T00:15:56;100196.25;;;11.08;100.00
61757;BME280;57225;61.460;24.060;2023-05-23T00:18:40;100199.38;;;11.21;100.00
61757;BME280;57225;61.460;24.060;2023-05-23T00:21:26;100206.94;;;11.27;100.00
61757;BME280;57225;61.460;24.060;2023-05-23T00:24:10;100222.03;;;11.37;100.00
61757;BME280;57225;61.460;24.060;2023-05-23T00:26:55;100218.44;;;11.40;100.00
61757;BME280;57225;61.460;24.060;2023-05-23T00:29:40;100207.69;;;11.35;100.00
61757;BME280;57225;61.460;24.060;2023-05-23T00:32:24;100199.34;;;11.32;100.00
61757;BME280;57225;61.460;24.060;2023-05-23T00:35:10;100212.84;;;11.44;100.00
61757;BME280;57225;61.460;24.060;2023-05-23T00:37:54;100209.28;;;11.36;100.00
61757;BME280;57225;61.460;24.060;2023-05-23T00:40:39;100213.25;;;11.42;100.00
61757;BME280;57225;61.460;24.060;2023-05-23T00:43:24;100210.06;;;11.40;100.00
61757;BME280;57225;61.460;24.060;2023-05-23T00:46:09;100215.19;;;11.45;100.00
61757;BME280;57225;61.460;24.060;2023-05-23T00:48:54;100210.03;;;11.47;100.00
61757;BME280;57225;61.460;24.060;2023-05-23T00:51:39;100212.00;;;11.50;100.00
61757;BME280;57225;61.460;24.060;2023-05-23T00:54:28;100205.25;;;11.48;100.00
61757;BME280;57225;61.460;24.060;2023-05-23T00:57:14;100207.63;;;11.49;100.00
61757;BME280;57225;61.460;24.060;2023-05-23T00:59:59;100208.00;;;11.51;100.00
61757;BME280;57225;61.460;24.060;2023-05-23T01:02:45;100203.28;;;11.41;100.00
61757;BME280;57225;61.460;24.060;2023-05-23T01:05:30;100205.66;;;11.39;100.00
61757;BME280;57225;61.460;24.060;2023-05-23T01:08:14;100208.06;;;11.44;100.00
61757;BME280;57225;61.460;24.060;2023-05-23T01:11:03;100198.06;;;11.47;100.00
61757;BME280;57225;61.460;24.060;2023-05-23T01:14:00;100211.19;;;11.57;100.00
61757;BME280;57225;61.460;24.060;2023-05-23T01:16:51;100196.81;;;11.51;100.00
61757;BME280;57225;61.460;24.060;2023-05-23T01:19:54;100206.81;;;11.52;100.00
61757;BME280;57225;61.460;24.060;2023-05-23T01:23:03;100209.19;;;11.54;100.00
61757;BME280;57225;61.460;24.060;2023-05-23T01:29:14;100216.84;;;11.39;100.00
61757;BME280;57225;61.460;24.060;2023-05-23T01:32:06;100217.66;;;11.36;100.00
61757;BME280;57225;61.460;24.060;2023-05-23T01:34:52;100215.25;;;11.42;100.00
61757;BME280;57225;61.460;24.060;2023-05-23T01:37:37;100219.63;;;11.39;100.00
61757;BME280;57225;61.460;24.060;2023-05-23T01:40:23;100216.03;;;11.42;100.00
61757;BME280;57225;61.460;24.060;2023-05-23T01:43:07;100220.41;;;11.40;100.00
61757;BME280;57225;61.460;24.060;2023-05-23T01:45:53;100225.63;;;11.38;100.00
61757;BME280;57225;61.460;24.060;2023-05-23T01:48:39;100216.84;;;11.39;100.00
61757;BME280;57225;61.460;24.060;2023-05-23T01:51:24;100219.22;;;11.44;100.00
61757;BME280;57225;61.460;24.060;2023-05-23T01:54:10;100223.19;;;11.47;100.00
61757;BME280;57225;61.460;24.060;2023-05-23T01:56:57;100219.22;;;11.44;100.00
61757;BME280;57225;61.460;24.060;2023-05-23T01:59:42;100224.78;;;11.48;100.00
61757;BME280;57225;61.460;24.060;2023-05-23T02:02:26;100221.59;;;11.49;100.00
61757;BME280;57225;61.460;24.060;2023-05-23T02:05:11;100217.59;;;11.50;100.00
61757;BME280;57225;61.460;24.060;2023-05-23T02:07:57;100204.81;;;11.56;100.00
61757;BME280;57225;61.460;24.060;2023-05-23T02:10:41;100204.38;;;11.61;100.00
61757;BME280;57225;61.460;24.060;2023-05-23T02:13:26;100201.19;;;11.63;100.00
61757;BME280;57225;61.460;24.060;2023-05-23T02:16:10;100202.34;;;11.65;100.00
61757;BME280;57225;61.460;24.060;2023-05-23T02:18:57;100167.34;;;11.50;100.00
61757;BME280;57225;61.460;24.060;2023-05-23T02:21:41;100185.97;;;11.75;100.00
61757;BME280;57225;61.460;24.060;2023-05-23T02:24:26;100187.97;;;11.74;100.00
61757;BME280;57225;61.460;24.060;2023-05-23T02:27:10;100182.34;;;11.78;100.00
61757;BME280;57225;61.460;24.060;2023-05-23T02:29:54;100179.94;;;11.80;100.00
61757;BME280;57225;61.460;24.060;2023-05-23T02:32:39;100169.56;;;11.77;100.00
61757;BME280;57225;61.460;24.060;2023-05-23T02:35:23;100165.63;;;11.74;100.00
61757;BME280;57225;61.460;24.060;2023-05-23T02:38:08;100171.97;;;11.82;100.00
61757;BME280;57225;61.460;24.060;2023-05-23T02:40:52;100175.13;;;11.84;100.00
61757;BME280;57225;61.460;24.060;2023-05-23T02:43:37;100177.50;;;11.85;100.00
61757;BME280;57225;61.460;24.060;2023-05-23T02:46:22;100169.09;;;11.89;100.00
61757;BME280;57225;61.460;24.060;2023-05-23T02:49:06;100133.28;;;11.77;100.00
61757;BME280;57225;61.460;24.060;2023-05-23T02:51:52;100170.97;;;12.02;100.00
61757;BME280;57225;61.460;24.060;2023-05-23T02:54:36;100170.97;;;12.06;100.00
61757;BME280;57225;61.460;24.060;2023-05-23T02:57:21;100138.41;;;11.85;100.00
61757;BME280;57225;61.460;24.060;2023-05-23T03:00:05;100160.59;;;12.06;100.00
61757;BME280;57225;61.460;24.060;2023-05-23T03:02:50;100160.53;;;12.14;100.00
61757;BME280;57225;61.460;24.060;2023-05-23T03:05:35;100162.88;;;12.15;100.00
61757;BME280;57225;61.460;24.060;2023-05-23T03:08:19;100160.88;;;12.16;100.00
61757;BME280;57225;61.460;24.060;2023-05-23T03:11:04;100152.50;;;12.16;100.00
61757;BME280;57225;61.460;24.060;2023-05-23T03:13:48;100170.00;;;12.23;100.00
61757;BME280;57225;61.460;24.060;2023-05-23T03:16:32;100155.63;;;12.25;100.00
61757;BME280;57225;61.460;24.060;2023-05-23T03:19:17;100164.41;;;12.23;100.00
61757;BME280;57225;61.460;24.060;2023-05-23T03:22:02;100139.22;;;12.27;100.00
61757;BME280;57225;61.460;24.060;2023-05-23T03:24:47;100146.75;;;12.33;100.00
61757;BME280;57225;61.460;24.060;2023-05-23T03:27:31;100149.91;;;12.39;100.00
61757;BME280;57225;61.460;24.060;2023-05-23T03:30:16;100135.16;;;12.35;100.00
61757;BME280;57225;61.460;24.060;2023-05-23T03:33:00;100142.66;;;12.45;100.00
61757;BME280;57225;61.460;24.060;2023-05-23T03:35:46;100145.00;;;12.46;100.00
61757;BME280;57225;61.460;24.060;2023-05-23T03:38:31;100142.59;;;12.48;100.00
61757;BME280;57225;61.460;24.060;2023-05-23T03:41:15;100136.19;;;12.52;100.00
61757;BME280;57225;61.460;24.060;2023-05-23T03:43:59;100145.72;;;12.58;100.00
61757;BME280;57225;61.460;24.060;2023-05-23T03:46:44;100142.16;;;12.54;100.00
61757;BME280;57225;61.460;24.060;2023-05-23T03:49:28;100140.16;;;12.54;100.00
61757;BME280;57225;61.460;24.060;2023-05-23T03:52:13;100152.97;;;12.52;100.00
61757;BME280;57225;61.460;24.060;2023-05-23T03:54:57;100137.13;;;12.38;100.00
61757;BME280;57225;61.460;24.060;2023-05-23T03:57:41;100152.97;;;12.52;100.00
61757;BME280;57225;61.460;24.060;2023-05-23T04:00:26;100149.72;;;12.57;100.00
61757;BME280;57225;61.460;24.060;2023-05-23T04:03:10;100146.50;;;12.58;100.00
61757;BME280;57225;61.460;24.060;2023-05-23T04:05:58;100146.06;;;12.60;100.00
61757;BME280;57225;61.460;24.060;2023-05-23T04:08:43;100151.66;;;12.63;100.00
61757;BME280;57225;61.460;24.060;2023-05-23T04:11:28;100145.59;;;12.65;100.00
61757;BME280;57225;61.460;24.060;2023-05-23T04:14:13;100130.00;;;12.67;100.00
61757;BME280;57225;61.460;24.060;2023-05-23T04:16:57;100144.84;;;12.64;100.00
61757;BME280;57225;61.460;24.060;2023-05-23T04:19:44;100148.78;;;12.70;100.00
61757;BME280;57225;61.460;24.060;2023-05-23T04:22:28;100149.56;;;12.71;100.00
61757;BME280;57225;61.460;24.060;2023-05-23T04:25:12;100142.31;;;12.73;100.00
61757;BME280;57225;61.460;24.060;2023-05-23T04:27:57;100152.09;;;12.92;100.00
61757;BME280;57225;61.460;24.060;2023-05-23T04:30:43;100152.47;;;12.94;100.00
61757;BME280;57225;61.460;24.060;2023-05-23T04:33:29;100148.00;;;13.00;100.00
61757;BME280;57225;61.460;24.060;2023-05-23T04:36:14;100147.13;;;13.07;100.00
61757;BME280;57225;61.460;24.060;2023-05-23T04:38:59;100126.78;;;13.03;100.00
61757;BME280;57225;61.460;24.060;2023-05-23T04:41:43;100129.53;;;13.06;100.00
61757;BME280;57225;61.460;24.060;2023-05-23T04:44:28;100137.41;;;13.18;100.00
61757;BME280;57225;61.460;24.060;2023-05-23T04:47:13;100136.50;;;13.25;100.00
61757;BME280;57225;61.460;24.060;2023-05-23T04:50:00;100138.41;;;13.32;100.00
61757;BME280;57225;61.460;24.060;2023-05-23T04:52:45;100135.22;;;13.33;99.87
61757;BME280;57225;61.460;24.060;2023-05-23T04:55:31;100127.97;;;13.36;98.41
61757;BME280;57225;61.460;24.060;2023-05-23T04:58:16;100131.06;;;13.41;99.09
61757;BME280;57225;61.460;24.060;2023-05-23T05:01:09;100137.78;;;13.47;97.96
61757;BME280;57225;61.460;24.060;2023-05-23T05:03:53;100122.16;;;13.50;95.81
61757;BME280;57225;61.460;24.060;2023-05-23T05:06:39;100132.97;;;13.75;96.84
61757;BME280;57225;61.460;24.060;2023-05-23T05:09:24;100122.09;;;14.03;95.98
61757;BME280;57225;61.460;24.060;2023-05-23T05:12:09;100118.59;;;14.19;95.22
61757;BME280;57225;61.460;24.060;2023-05-23T05:14:54;100123.78;;;14.44;93.40
61757;BME280;57225;61.460;24.060;2023-05-23T05:17:39;100120.00;;;14.74;92.05
61757;BME280;57225;61.460;24.060;2023-05-23T05:20:23;100095.25;;;14.88;88.98
61757;BME280;57225;61.460;24.060;2023-05-23T05:26:14;100119.59;;;15.83;85.05
61757;BME280;57225;61.460;24.060;2023-05-23T05:28:58;100105.41;;;16.19;81.11
61757;BME280;57225;61.460;24.060;2023-05-23T05:31:44;100113.19;;;16.44;79.89
61757;BME280;57225;61.460;24.060;2023-05-23T05:34:28;100116.59;;;16.52;77.35
61757;BME280;57225;61.460;24.060;2023-05-23T05:37:13;100114.88;;;16.25;78.22
61757;BME280;57225;61.460;24.060;2023-05-23T05:39:58;100112.44;;;16.27;78.78
61757;BME280;57225;61.460;24.060;2023-05-23T05:42:46;100124.22;;;16.22;80.17
61757;BME280;57225;61.460;24.060;2023-05-23T05:45:30;100093.84;;;16.01;80.18
61757;BME280;57225;61.460;24.060;2023-05-23T05:48:15;100109.66;;;16.11;80.70
61757;BME280;57225;61.460;24.060;2023-05-23T05:50:59;100123.88;;;16.20;77.19
61757;BME280;57225;61.460;24.060;2023-05-23T05:53:45;100112.13;;;15.77;80.08
61757;BME280;57225;61.460;24.060;2023-05-23T05:56:30;100130.41;;;15.85;78.63
61757;BME280;57225;61.460;24.060;2023-05-23T05:59:15;100135.28;;;16.13;77.96
61757;BME280;57225;61.460;24.060;2023-05-23T06:01:59;100134.75;;;16.34;78.01
61757;BME280;57225;61.460;24.060;2023-05-23T06:04:44;100139.09;;;16.52;77.78
61757;BME280;57225;61.460;24.060;2023-05-23T06:07:28;100136.78;;;16.79;74.16
61757;BME280;57225;61.460;24.060;2023-05-23T06:10:13;100144.28;;;16.98;76.35
61757;BME280;57225;61.460;24.060;2023-05-23T06:12:57;100150.75;;;17.24;74.83
61757;BME280;57225;61.460;24.060;2023-05-23T06:15:44;100148.75;;;17.37;72.52
61757;BME280;57225;61.460;24.060;2023-05-23T06:18:29;100157.78;;;17.57;69.98
61757;BME280;57225;61.460;24.060;2023-05-23T06:21:15;100152.91;;;17.58;72.91
61757;BME280;57225;61.460;24.060;2023-05-23T06:24:00;100145.28;;;17.96;71.70
61757;BME280;57225;61.460;24.060;2023-05-23T06:26:45;100144.75;;;17.89;72.35
61757;BME280;57225;61.460;24.060;2023-05-23T06:29:30;100153.66;;;17.87;71.34
61757;BME280;57225;61.460;24.060;2023-05-23T06:32:14;100131.53;;;17.98;71.51
61757;BME280;57225;61.460;24.060;2023-05-23T06:34:59;100150.44;;;18.23;69.69
61757;BME280;57225;61.460;24.060;2023-05-23T06:37:44;100147.38;;;18.30;70.41
61757;BME280;57225;61.460;24.060;2023-05-23T06:40:29;100141.22;;;18.44;70.14
61757;BME280;57225;61.460;24.060;2023-05-23T06:43:13;100132.75;;;17.97;69.74
61757;BME280;57225;61.460;24.060;2023-05-23T06:45:57;100137.94;;;18.12;69.32
61757;BME280;57225;61.460;24.060;2023-05-23T06:48:42;100135.78;;;18.03;68.88
61757;BME280;57225;61.460;24.060;2023-05-23T06:51:26;100142.25;;;17.78;69.64
61757;BME280;57225;61.460;24.060;2023-05-23T06:54:11;100132.66;;;17.50;70.66
61757;BME280;57225;61.460;24.060;2023-05-23T06:56:55;100139.53;;;17.49;72.12
61757;BME280;57225;61.460;24.060;2023-05-23T06:59:40;100153.66;;;17.62;71.86
61757;BME280;57225;61.460;24.060;2023-05-23T07:02:24;100152.84;;;17.61;73.96
61757;BME280;57225;61.460;24.060;2023-05-23T07:05:09;100167.00;;;17.58;74.69
61757;BME280;57225;61.460;24.060;2023-05-23T07:07:53;100155.84;;;17.42;74.77
61757;BME280;57225;61.460;24.060;2023-05-23T07:10:38;100155.19;;;17.38;76.60
61757;BME280;57225;61.460;24.060;2023-05-23T07:13:24;100150.06;;;17.20;77.66
61757;BME280;57225;61.460;24.060;2023-05-23T07:16:09;100147.72;;;17.18;77.99
61757;BME280;57225;61.460;24.060;2023-05-23T07:18:53;100138.91;;;17.16;80.01
61757;BME280;57225;61.460;24.060;2023-05-23T07:21:38;100145.44;;;17.13;78.73
61757;BME280;57225;61.460;24.060;2023-05-23T07:24:22;100148.00;;;17.08;78.12
61757;BME280;57225;61.460;24.060;2023-05-23T07:27:07;100147.13;;;17.11;79.32
61757;BME280;57225;61.460;24.060;2023-05-23T07:29:51;100150.84;;;17.20;80.85
61757;BME280;57225;61.460;24.060;2023-05-23T07:32:36;100153.00;;;17.29;80.10
61757;BME280;57225;61.460;24.060;2023-05-23T07:35:20;100160.13;;;17.34;79.45
61757;BME280;57225;61.460;24.060;2023-05-23T07:38:09;100152.13;;;17.32;77.47
61757;BME280;57225;61.460;24.060;2023-05-23T07:40:53;100157.53;;;17.39;77.40
61757;BME280;57225;61.460;24.060;2023-05-23T07:43:38;100149.41;;;17.41;75.92
61757;BME280;57225;61.460;24.060;2023-05-23T07:46:23;100153.16;;;17.51;76.72
61757;BME280;57225;61.460;24.060;2023-05-23T07:49:08;100153.97;;;17.51;76.12
61757;BME280;57225;61.460;24.060;2023-05-23T07:51:53;100145.03;;;17.53;75.60
61757;BME280;57225;61.460;24.060;2023-05-23T07:54:37;100132.34;;;17.61;73.30
61757;BME280;57225;61.460;24.060;2023-05-23T07:57:22;100137.31;;;17.70;73.54
61757;BME280;57225;61.460;24.060;2023-05-23T08:00:07;100120.03;;;17.93;71.72
61757;BME280;57225;61.460;24.060;2023-05-23T08:02:53;100140.81;;;18.33;72.31
61757;BME280;57225;61.460;24.060;2023-05-23T08:05:37;100136.22;;;18.61;70.80
61757;BME280;57225;61.460;24.060;2023-05-23T08:08:22;100137.78;;;18.97;69.71
61757;BME280;57225;61.460;24.060;2023-05-23T08:11:06;100140.38;;;19.13;69.35
61757;BME280;57225;61.460;24.060;2023-05-23T08:13:51;100137.31;;;19.29;67.41
61757;BME280;57225;61.460;24.060;2023-05-23T08:16:35;100141.03;;;19.17;65.91
61757;BME280;57225;61.460;24.060;2023-05-23T08:19:20;100133.22;;;19.21;66.30
61757;BME280;57225;61.460;24.060;2023-05-23T08:22:06;100132.69;;;19.44;65.85
61757;BME280;57225;61.460;24.060;2023-05-23T08:24:50;100139.25;;;19.63;66.07
61757;BME280;57225;61.460;24.060;2023-05-23T08:27:35;100144.28;;;19.59;65.78
61757;BME280;57225;61.460;24.060;2023-05-23T08:30:20;100142.53;;;20.01;65.96
61757;BME280;57225;61.460;24.060;2023-05-23T08:33:06;100144.06;;;20.42;60.91
61757;BME280;57225;61.460;24.060;2023-05-23T08:35:51;100142.81;;;20.53;59.23
61757;BME280;57225;61.460;24.060;2023-05-23T08:38:35;100142.34;;;20.63;59.00
61757;BME280;57225;61.460;24.060;2023-05-23T08:41:23;100133.72;;;20.49;58.76
61757;BME280;57225;61.460;24.060;2023-05-23T08:44:08;100138.44;;;20.61;59.18
61757;BME280;57225;61.460;24.060;2023-05-23T08:46:52;100142.66;;;20.83;56.84
61757;BME280;57225;61.460;24.060;2023-05-23T08:49:37;100146.84;;;21.43;56.76
61757;BME280;57225;61.460;24.060;2023-05-23T08:52:24;100143.66;;;21.92;54.67
61757;BME280;57225;61.460;24.060;2023-05-23T08:55:10;100138.25;;;22.27;52.09
61757;BME280;57225;61.460;24.060;2023-05-23T08:57:58;100150.16;;;23.02;51.88
61757;BME280;57225;61.460;24.060;2023-05-23T09:00:43;100147.22;;;22.97;49.33
61757;BME280;57225;61.460;24.060;2023-05-23T09:03:28;100134.88;;;23.00;50.98
61757;BME280;57225;61.460;24.060;2023-05-23T09:06:13;100152.75;;;23.44;47.54
61757;BME280;57225;61.460;24.060;2023-05-23T09:08:57;100147.03;;;23.74;48.83
61757;BME280;57225;61.460;24.060;2023-05-23T09:11:42;100139.13;;;23.98;46.64
61757;BME280;57225;61.460;24.060;2023-05-23T09:14:28;100143.47;;;23.93;44.74
61757;BME280;57225;61.460;24.060;2023-05-23T09:17:19;100126.53;;;24.04;45.15
61757;BME280;57225;61.460;24.060;2023-05-23T09:20:10;100150.69;;;24.09;45.16
61757;BME280;57225;61.460;24.060;2023-05-23T09:22:55;100142.44;;;24.11;44.90
61757;BME280;57225;61.460;24.060;2023-05-23T09:25:45;100151.13;;;24.02;43.54
61757;BME280;57225;61.460;24.060;2023-05-23T09:28:32;100155.66;;;24.49;44.06
61757;BME280;57225;61.460;24.060;2023-05-23T09:31:16;100146.38;;;24.14;42.94
61757;BME280;57225;61.460;24.060;2023-05-23T09:34:01;100148.63;;;24.44;44.23
61757;BME280;57225;61.460;24.060;2023-05-23T09:36:45;100133.72;;;24.75;44.73
61757;BME280;57225;61.460;24.060;2023-05-23T09:39:30;100147.78;;;24.59;41.09
61757;BME280;57225;61.460;24.060;2023-05-23T09:42:20;100153.38;;;23.98;41.77
61757;BME280;57225;61.460;24.060;2023-05-23T09:45:06;100152.22;;;22.63;44.97
61757;BME280;57225;61.460;24.060;2023-05-23T09:47:51;100143.84;;;22.83;47.50
61757;BME280;57225;61.460;24.060;2023-05-23T09:50:35;100143.94;;;23.57;47.25
61757;BME280;57225;61.460;24.060;2023-05-23T09:53:20;100152.94;;;23.70;45.44
61757;BME280;57225;61.460;24.060;2023-05-23T09:56:06;100143.50;;;24.14;45.38
61757;BME280;57225;61.460;24.060;2023-05-23T09:58:55;100146.75;;;24.21;42.55
61757;BME280;57225;61.460;24.060;2023-05-23T10:01:43;100141.47;;;24.55;42.01
61757;BME280;57225;61.460;24.060;2023-05-23T10:04:36;100145.84;;;24.50;40.41
61757;BME280;57225;61.460;24.060;2023-05-23T10:07:23;100146.47;;;24.80;40.71
61757;BME280;57225;61.460;24.060;2023-05-23T10:10:09;100149.91;;;25.36;40.38
61757;BME280;57225;61.460;24.060;2023-05-23T10:12:57;100156.31;;;25.25;38.26
61757;BME280;57225;61.460;24.060;2023-05-23T10:15:42;100147.97;;;24.96;38.23
61757;BME280;57225;61.460;24.060;2023-05-23T10:18:28;100145.47;;;24.83;39.95
61757;BME280;57225;61.460;24.060;2023-05-23T10:21:18;100150.31;;;25.23;39.94
61757;BME280;57225;61.460;24.060;2023-05-23T10:24:04;100149.41;;;25.11;37.77
61757;BME280;57225;61.460;24.060;2023-05-23T10:26:49;100139.34;;;24.50;40.46
61757;BME280;57225;61.460;24.060;2023-05-23T10:29:34;100137.78;;;24.28;40.51
61757;BME280;57225;61.460;24.060;2023-05-23T10:32:19;100142.63;;;24.83;42.08
61757;BME280;57225;61.460;24.060;2023-05-23T10:35:24;100141.72;;;25.49;39.15
61757;BME280;57225;61.460;24.060;2023-05-23T10:38:49;100137.84;;;25.46;38.37
61757;BME280;57225;61.460;24.060;2023-05-23T10:41:42;100137.59;;;26.18;38.03
61757;BME280;57225;61.460;24.060;2023-05-23T10:44:30;100136.97;;;26.40;38.17
61757;BME280;57225;61.460;24.060;2023-05-23T10:47:25;100144.94;;;26.25;36.79
61757;BME280;57225;61.460;24.060;2023-05-23T10:50:16;100128.09;;;26.32;38.08
61757;BME280;57225;61.460;24.060;2023-05-23T10:53:15;100140.94;;;26.59;37.00
61757;BME280;57225;61.460;24.060;2023-05-23T10:55:59;100146.84;;;26.98;36.28
61757;BME280;57225;61.460;24.060;2023-05-23T10:58:44;100137.56;;;26.55;33.48
61757;BME280;57225;61.460;24.060;2023-05-23T11:01:28;100117.56;;;26.55;34.40
61757;BME280;57225;61.460;24.060;2023-05-23T11:04:13;100141.59;;;26.32;33.43
61757;BME280;57225;61.460;24.060;2023-05-23T11:06:57;100134.69;;;25.44;35.68
61757;BME280;57225;61.460;24.060;2023-05-23T11:10:02;100128.97;;;25.13;36.86
61757;BME280;57225;61.460;24.060;2023-05-23T11:12:46;100124.03;;;24.47;37.10
61757;BME280;57225;61.460;24.060;2023-05-23T11:15:40;100122.31;;;24.75;37.52
61757;BME280;57225;61.460;24.060;2023-05-23T11:18:26;100133.56;;;25.36;38.57
61757;BME280;57225;61.460;24.060;2023-05-23T11:21:11;100127.16;;;25.67;34.89
61757;BME280;57225;61.460;24.060;2023-05-23T11:23:56;100142.56;;;25.86;34.38
61757;BME280;57225;61.460;24.060;2023-05-23T11:26:59;100126.09;;;26.07;33.92
61757;BME280;57225;61.460;24.060;2023-05-23T11:29:43;100141.13;;;27.04;33.87
61757;BME280;57225;61.460;24.060;2023-05-23T11:32:29;100142.47;;;26.49;32.64
61757;BME280;57225;61.460;24.060;2023-05-23T11:35:15;100130.19;;;25.95;33.25
61757;BME280;57225;61.460;24.060;2023-05-23T11:38:03;100135.47;;;25.45;35.06
61757;BME280;57225;61.460;24.060;2023-05-23T11:40:48;100141.28;;;24.78;36.09
61757;BME280;57225;61.460;24.060;2023-05-23T11:43:32;100129.44;;;24.25;37.88
61757;BME280;57225;61.460;24.060;2023-05-23T11:46:17;100133.25;;;24.01;36.21
61757;BME280;57225;61.460;24.060;2023-05-23T11:49:02;100129.53;;;24.16;36.70
61757;BME280;57225;61.460;24.060;2023-05-23T11:51:47;100131.38;;;24.33;35.91
61757;BME280;57225;61.460;24.060;2023-05-23T11:54:32;100121.69;;;24.46;36.23
61757;BME280;57225;61.460;24.060;2023-05-23T11:57:16;100123.81;;;25.17;35.21
61757;BME280;57225;61.460;24.060;2023-05-23T12:00:01;100130.63;;;24.99;34.41
61757;BME280;57225;61.460;24.060;2023-05-23T12:02:47;100129.97;;;24.43;32.20
61757;BME280;57225;61.460;24.060;2023-05-23T12:05:32;100133.78;;;24.20;32.51
61757;BME280;57225;61.460;24.060;2023-05-23T12:08:16;100125.78;;;24.85;31.70
61757;BME280;57225;61.460;24.060;2023-05-23T12:11:01;100123.31;;;25.18;31.86
61757;BME280;57225;61.460;24.060;2023-05-23T12:13:45;100126.91;;;25.71;31.63
61757;BME280;57225;61.460;24.060;2023-05-23T12:16:30;100121.38;;;26.41;31.76
61757;BME280;57225;61.460;24.060;2023-05-23T12:19:18;100123.81;;;26.65;30.34
61757;BME280;57225;61.460;24.060;2023-05-23T12:22:06;100123.66;;;26.91;30.01
61757;BME280;57225;61.460;24.060;2023-05-23T12:24:54;100118.13;;;26.81;26.99
61757;BME280;57225;61.460;24.060;2023-05-23T12:27:40;100123.47;;;27.28;27.35
61757;BME280;57225;61.460;24.060;2023-05-23T12:30:27;100114.13;;;27.66;29.22
61757;BME280;57225;61.460;24.060;2023-05-23T12:33:11;100118.44;;;28.28;27.24
61757;BME280;57225;61.460;24.060;2023-05-23T12:35:56;100113.25;;;28.10;26.01
61757;BME280;57225;61.460;24.060;2023-05-23T12:38:41;100116.41;;;28.12;25.49
61757;BME280;57225;61.460;24.060;2023-05-23T12:41:28;100119.53;;;28.25;26.52
61757;BME280;57225;61.460;24.060;2023-05-23T12:44:14;100126.38;;;28.69;27.03
61757;BME280;57225;61.460;24.060;2023-05-23T12:47:00;100114.84;;;28.86;25.86
61757;BME280;57225;61.460;24.060;2023-05-23T12:49:44;100123.38;;;28.39;27.48
61757;BME280;57225;61.460;24.060;2023-05-23T12:52:30;100128.34;;;28.27;27.39
61757;BME280;57225;61.460;24.060;2023-05-23T12:55:14;100125.53;;;28.16;27.97
61757;BME280;57225;61.460;24.060;2023-05-23T12:57:58;100123.16;;;28.20;27.92
61757;BME280;57225;61.460;24.060;2023-05-23T13:00:43;100125.41;;;28.50;28.43
61757;BME280;57225;61.460;24.060;2023-05-23T13:03:28;100137.53;;;28.89;29.13
61757;BME280;57225;61.460;24.060;2023-05-23T13:06:16;100127.75;;;28.51;27.90
61757;BME280;57225;61.460;24.060;2023-05-23T13:09:00;100123.19;;;27.09;29.83
61757;BME280;57225;61.460;24.060;2023-05-23T13:11:45;100126.31;;;27.11;30.55
61757;BME280;57225;61.460;24.060;2023-05-23T13:14:29;100132.09;;;27.55;29.07
61757;BME280;57225;61.460;24.060;2023-05-23T13:17:14;100115.66;;;27.39;26.45
61757;BME280;57225;61.460;24.060;2023-05-23T13:19:58;100110.72;;;27.34;26.82
61757;BME280;57225;61.460;24.060;2023-05-23T13:22:43;100115.69;;;26.52;27.96
61757;BME280;57225;61.460;24.060;2023-05-23T13:25:27;100121.13;;;27.37;28.18
61757;BME280;57225;61.460;24.060;2023-05-23T13:28:11;100119.56;;;27.42;26.73
61757;BME280;57225;61.460;24.060;2023-05-23T13:30:56;100117.00;;;27.55;26.41
61757;BME280;57225;61.460;24.060;2023-05-23T13:33:40;100091.94;;;26.94;25.03
61757;BME280;57225;61.460;24.060;2023-05-23T13:36:25;100116.78;;;26.18;26.33
61757;BME280;57225;61.460;24.060;2023-05-23T13:39:09;100100.16;;;26.64;27.71
61757;BME280;57225;61.460;24.060;2023-05-23T13:41:54;100119.41;;;26.69;26.51
61757;BME280;57225;61.460;24.060;2023-05-23T13:44:39;100111.94;;;26.89;26.89
61757;BME280;57225;61.460;24.060;2023-05-23T13:47:23;100114.06;;;26.99;27.60
61757;BME280;57225;61.460;24.060;2023-05-23T13:50:09;100116.53;;;26.69;26.18
61757;BME280;57225;61.460;24.060;2023-05-23T13:52:54;100119.66;;;26.18;27.34
61757;BME280;57225;61.460;24.060;2023-05-23T13:55:39;100112.00;;;25.61;28.14
61757;BME280;57225;61.460;24.060;2023-05-23T13:58:23;100111.31;;;25.40;28.77
61757;BME280;57225;61.460;24.060;2023-05-23T14:01:08;100115.41;;;25.34;29.38
61757;BME280;57225;61.460;24.060;2023-05-23T14:03:53;100115.59;;;25.56;26.85
61757;BME280;57225;61.460;24.060;2023-05-23T14:06:39;100120.84;;;25.32;30.13
61757;BME280;57225;61.460;24.060;2023-05-23T14:09:23;100123.41;;;25.30;30.28
61757;BME280;57225;61.460;24.060;2023-05-23T14:12:09;100106.81;;;25.02;29.71
61757;BME280;57225;61.460;24.060;2023-05-23T14:14:55;100124.72;;;25.03;29.84
61757;BME280;57225;61.460;24.060;2023-05-23T14:17:40;100118.28;;;24.88;29.77